Time;durP1;ratioP1;P1;durP2;ratioP2;P2;SDS_P1;SDS_P2;PMS_P1;PMS_P2;Temp;Humidity;BMP_temperature;BMP_pressure;BME280_temperature;BME280_humidity;BME280_pressure;Samples;Min_cycle;Max_cycle;Signal;HPM_P1;HPM_P2
2022/12/10 00:02:11;;;;;;;36.93;20.80;;;;;;;9.71;99.34;99072.47;5054187;28;20191;-55
2022/12/10 00:04:37;;;;;;;38.17;21.57;;;;;;;9.70;99.58;99055.34;5054048;28;20247;-56
2022/12/10 00:07:04;;;;;;;35.40;19.53;;;;;;;9.73;99.08;99055.41;5054113;28;20193;-56
2022/12/10 00:09:31;;;;;;;36.60;20.47;;;;;;;9.78;98.96;99051.19;5054273;28;20187;-55
2022/12/10 00:11:58;;;;;;;38.90;20.73;;;;;;;9.80;98.73;99041.81;5054205;28;20196;-56
2022/12/10 00:14:26;;;;;;;37.17;21.80;;;;;;;9.81;98.42;99053.78;5052954;28;20658;-55
2022/12/10 00:16:53;;;;;;;36.67;20.53;;;;;;;9.79;98.65;99041.78;5054159;28;20199;-53
2022/12/10 00:19:20;;;;;;;33.67;21.17;;;;;;;9.79;98.87;99050.34;5051241;28;20283;-55
2022/12/10 00:21:47;;;;;;;35.47;20.40;;;;;;;9.78;98.79;99053.75;5053981;28;20184;-55
2022/12/10 00:24:14;;;;;;;36.57;19.73;;;;;;;9.78;98.54;99052.91;5052491;28;20188;-55
2022/12/10 00:26:46;;;;;;;37.63;19.33;;;;;;;9.76;99.17;99046.88;5054361;28;20185;-55
2022/12/10 00:29:13;;;;;;;35.07;20.10;;;;;;;9.76;99.44;99050.31;5054121;28;20246;-55
2022/12/10 00:31:42;;;;;;;36.73;20.87;;;;;;;9.77;99.41;99064.88;5054867;28;20191;-55
2022/12/10 00:34:10;;;;;;;38.03;20.67;;;;;;;9.83;99.27;99052.09;5054742;28;20224;-55
2022/12/10 00:36:41;;;;;;;40.03;20.93;;;;;;;9.79;99.05;99046.91;5053750;28;20571;-55
2022/12/10 00:39:10;;;;;;;39.80;20.60;;;;;;;9.77;99.56;99049.47;5054574;28;20204;-55
2022/12/10 00:41:37;;;;;;;43.47;21.77;;;;;;;9.73;99.42;99057.97;5054405;28;20282;-55
2022/12/10 00:44:04;;;;;;;44.23;20.70;;;;;;;9.68;100.00;99072.44;5054617;28;20192;-55
2022/12/10 00:46:32;;;;;;;49.57;22.67;;;;;;;9.71;100.00;99058.78;5054019;28;20279;-55
2022/12/10 00:49:00;;;;;;;44.53;23.13;;;;;;;9.72;100.00;99061.41;5054329;28;20207;-55
2022/12/10 00:51:28;;;;;;;43.40;22.47;;;;;;;9.66;100.00;99056.19;5053927;28;20679;-55
2022/12/10 00:53:56;;;;;;;52.47;23.90;;;;;;;9.71;100.00;99045.97;5053898;28;20247;-55
2022/12/10 00:56:28;;;;;;;49.87;25.33;;;;;;;9.64;100.00;99041.63;5053997;28;20192;-55
2022/12/10 00:58:55;;;;;;;49.57;24.23;;;;;;;9.66;100.00;99060.44;5054647;28;20184;-55
2022/12/10 01:01:25;;;;;;;50.40;24.20;;;;;;;9.62;100.00;99040.72;5054230;28;20246;-55
2022/12/10 01:03:54;;;;;;;51.33;25.50;;;;;;;9.68;100.00;99054.50;5053899;28;20260;-54
2022/12/10 01:06:24;;;;;;;63.93;26.47;;;;;;;9.68;100.00;99051.06;5053880;28;20207;-54
2022/12/10 01:08:53;;;;;;;55.53;27.07;;;;;;;9.68;100.00;99045.94;5053841;28;20688;-55
2022/12/10 01:11:22;;;;;;;51.23;26.83;;;;;;;9.71;100.00;99040.84;5053996;28;20192;-55
2022/12/10 01:13:50;;;;;;;56.00;27.40;;;;;;;9.67;100.00;99041.66;5053606;28;20297;-55
2022/12/10 01:16:20;;;;;;;55.20;26.57;;;;;;;9.67;100.00;99039.09;5053491;28;20189;-55
2022/12/10 01:18:47;;;;;;;61.13;28.23;;;;;;;9.65;100.00;99033.94;5053453;28;20199;-55
2022/12/10 01:21:16;;;;;;;55.57;26.63;;;;;;;9.56;100.00;99009.88;5053591;28;20188;-55
2022/12/10 01:23:46;;;;;;;61.73;28.87;;;;;;;9.71;100.00;99020.31;5053289;28;20196;-55
2022/12/10 01:26:16;;;;;;;53.83;28.03;;;;;;;9.63;100.00;99020.22;5053620;28;20188;-55
2022/12/10 01:28:43;;;;;;;60.83;28.40;;;;;;;9.60;100.00;99012.50;5053130;28;20732;-55
2022/12/10 01:31:14;;;;;;;61.77;30.00;;;;;;;9.65;100.00;99017.66;5053322;28;20265;-55
2022/12/10 01:33:41;;;;;;;59.67;28.60;;;;;;;9.40;100.00;98966.09;5053032;28;20277;-55
2022/12/10 01:36:12;;;;;;;66.70;28.77;;;;;;;9.66;100.00;98994.63;5053136;28;20323;-55
2022/12/10 01:38:39;;;;;;;63.33;29.20;;;;;;;9.66;100.00;99004.00;5041986;28;20266;-55
2022/12/10 01:41:09;;;;;;;63.23;30.53;;;;;;;9.65;100.00;98998.03;5033098;28;20663;-54
2022/12/10 01:43:57;;;;;;;72.70;32.10;;;;;;;9.66;100.00;99001.44;5033012;28;20204;-54
2022/12/10 01:46:25;;;;;;;71.90;31.83;;;;;;;9.65;100.00;98992.88;5033494;28;20189;-54
2022/12/10 01:48:52;;;;;;;74.83;32.77;;;;;;;9.66;100.00;99010.00;5033708;28;20262;-55
2022/12/10 01:51:20;;;;;;;72.10;33.73;;;;;;;9.67;100.00;98988.63;5032645;28;20250;-55
2022/12/10 01:53:47;;;;;;;71.70;34.40;;;;;;;9.67;100.00;98998.06;5033284;28;20216;-54
2022/12/10 01:56:16;;;;;;;68.63;33.60;;;;;;;9.68;100.00;98981.81;5033388;28;20200;-54
2022/12/10 01:58:44;;;;;;;72.87;33.13;;;;;;;9.73;100.00;98977.59;5032871;28;20662;-54
2022/12/10 02:01:14;;;;;;;78.03;34.53;;;;;;;9.72;100.00;98978.44;5032916;28;20250;-55
2022/12/10 02:03:52;;;;;;;71.97;33.57;;;;;;;9.71;100.00;98979.28;5032645;28;20204;-55
2022/12/10 02:06:31;;;;;;;79.80;40.47;;;;;;;9.73;100.00;98981.00;5032216;28;20471;-55
2022/12/10 02:09:05;;;;;;;77.90;36.53;;;;;;;9.76;100.00;98988.75;5032838;28;20200;-55
2022/12/10 02:11:39;;;;;;;82.23;37.53;;;;;;;9.76;100.00;98975.91;5032607;28;20192;-55
2022/12/10 02:14:16;;;;;;;79.33;36.43;;;;;;;9.75;100.00;98971.63;5033004;28;20209;-54
2022/12/10 02:16:48;;;;;;;78.90;38.77;;;;;;;9.69;100.00;98971.56;5033017;28;20185;-55
2022/12/10 02:19:23;;;;;;;76.73;39.00;;;;;;;9.57;100.00;98961.16;5032550;28;20208;-55
2022/12/10 02:21:52;;;;;;;84.70;38.47;;;;;;;9.62;100.00;98967.19;5032851;28;20197;-55
2022/12/10 02:24:26;;;;;;;74.77;38.60;;;;;;;9.63;100.00;98968.94;5032430;28;20246;-55
2022/12/10 02:27:03;;;;;;;81.47;37.93;;;;;;;9.64;100.00;98990.31;5033085;28;20246;-55
2022/12/10 02:29:32;;;;;;;70.83;35.90;;;;;;;9.61;100.00;98970.63;5032411;28;20671;-55
2022/12/10 02:32:03;;;;;;;70.30;33.03;;;;;;;9.59;100.00;98979.13;5032533;28;20189;-55
2022/12/10 02:34:34;;;;;;;61.47;33.20;;;;;;;9.57;100.00;98981.69;5032391;28;20220;-55
2022/12/10 02:37:05;;;;;;;62.43;31.70;;;;;;;9.60;100.00;98989.41;5031468;28;20239;-54
2022/12/10 02:39:39;;;;;;;63.67;32.07;;;;;;;9.60;100.00;98979.16;5032921;28;20189;-55
2022/12/10 02:42:08;;;;;;;64.23;31.97;;;;;;;9.55;100.00;98978.25;5032797;28;20189;-55
2022/12/10 02:44:38;;;;;;;60.90;31.70;;;;;;;9.57;100.00;98989.38;5032210;28;20192;-55
2022/12/10 02:47:07;;;;;;;54.23;31.27;;;;;;;9.57;100.00;98994.50;5032447;28;20193;-55
2022/12/10 02:49:35;;;;;;;58.37;30.77;;;;;;;9.55;100.00;98992.75;5032457;28;20189;-54
2022/12/10 02:52:08;;;;;;;56.90;32.00;;;;;;;9.54;100.00;98984.22;5042378;28;20226;-54
2022/12/10 02:54:42;;;;;;;57.67;31.60;;;;;;;9.50;100.00;98982.47;5052256;28;20222;-55
2022/12/10 02:57:19;;;;;;;55.87;29.83;;;;;;;9.50;100.00;98980.72;5052287;28;20219;-55
2022/12/10 03:00:04;;;;;;;51.40;28.27;;;;;;;9.50;100.00;98962.78;5052078;28;20188;-55
2022/12/10 03:02:38;;;;;;;49.50;29.33;;;;;;;9.52;100.00;98965.38;5052106;28;20191;-55
2022/12/10 03:05:13;;;;;;;53.13;28.37;;;;;;;9.52;100.00;98961.94;5048750;28;20197;-55
2022/12/10 03:07:44;;;;;;;50.27;28.07;;;;;;;9.49;100.00;98961.09;5052044;28;20207;-54
2022/12/10 03:10:18;;;;;;;49.10;29.27;;;;;;;9.51;100.00;98955.97;5051927;28;20215;-54
2022/12/10 03:12:49;;;;;;;51.57;29.63;;;;;;;9.55;100.00;98970.56;5052377;28;20244;-55
2022/12/10 03:15:21;;;;;;;54.10;27.53;;;;;;;9.49;100.00;98971.34;5052729;28;20536;-55
2022/12/10 03:17:50;;;;;;;51.77;29.37;;;;;;;9.49;100.00;98960.22;5051814;28;20727;-55
2022/12/10 03:20:18;;;;;;;55.70;29.17;;;;;;;9.56;100.00;98959.44;5051761;28;20196;-55
2022/12/10 03:22:48;;;;;;;58.70;29.47;;;;;;;9.59;100.00;98956.03;5051686;28;20195;-55
2022/12/10 03:25:19;;;;;;;50.83;29.30;;;;;;;9.59;100.00;98949.22;5051809;28;20508;-55
2022/12/10 03:27:49;;;;;;;55.77;31.40;;;;;;;9.59;100.00;98949.22;5052182;28;20621;-54
2022/12/10 03:30:17;;;;;;;61.87;30.87;;;;;;;9.60;100.00;98947.50;5051515;28;20231;-55
2022/12/10 03:32:46;;;;;;;52.37;29.70;;;;;;;9.63;100.00;98957.81;5051543;28;20203;-55
2022/12/10 03:35:14;;;;;;;63.87;31.50;;;;;;;9.64;100.00;98945.00;5051579;28;20191;-55
2022/12/10 03:37:41;;;;;;;58.23;31.13;;;;;;;9.62;100.00;98940.69;5051264;28;20198;-55
2022/12/10 03:40:09;;;;;;;62.43;29.87;;;;;;;9.58;100.00;98928.69;5056545;28;20191;-55
2022/12/10 03:42:37;;;;;;;52.17;28.93;;;;;;;9.62;100.00;98940.69;5055113;28;20192;-55
2022/12/10 03:45:05;;;;;;;59.17;28.37;;;;;;;9.59;100.00;98941.53;5051485;28;20662;-55
2022/12/10 03:47:34;;;;;;;57.87;28.80;;;;;;;9.56;100.00;98936.34;5052608;28;20195;-55
2022/12/10 03:50:00;;;;;;;49.93;29.10;;;;;;;9.58;100.00;98928.69;5055282;28;20195;-55
2022/12/10 03:52:27;;;;;;;51.33;28.80;;;;;;;9.49;100.00;98925.19;5055150;28;20239;-55
2022/12/10 03:54:54;;;;;;;56.23;29.13;;;;;;;9.49;100.00;98919.19;5055171;28;20247;-55
2022/12/10 03:57:21;;;;;;;62.17;29.23;;;;;;;9.47;100.00;98926.88;5063512;28;20640;-55
2022/12/10 03:59:47;;;;;;;59.07;29.47;;;;;;;9.52;100.00;98924.34;5075047;28;20649;-55
2022/12/10 04:02:14;;;;;;;53.43;27.97;;;;;;;9.50;100.00;98926.88;5075101;28;20252;-55
2022/12/10 04:04:43;;;;;;;65.90;30.10;;;;;;;9.51;100.00;98927.75;5074619;28;20236;-55
2022/12/10 04:07:10;;;;;;;59.97;29.40;;;;;;;9.49;100.00;98929.44;5074672;28;20248;-55
2022/12/10 04:09:36;;;;;;;61.40;30.67;;;;;;;9.56;100.00;98941.47;5075107;28;20251;-55
2022/12/10 04:12:04;;;;;;;56.37;28.23;;;;;;;9.58;100.00;98938.94;5074940;28;20196;-55
2022/12/10 04:17:15;;;;;;;66.57;29.63;;;;;;;9.50;100.00;98944.00;5074841;28;20215;-55
2022/12/10 04:19:43;;;;;;;55.58;30.35;;;;;;;9.45;100.00;98951.63;5053863;28;20818;-55
2022/12/10 04:27:50;;;;;;;53.70;25.80;;;;;;;9.48;100.00;98920.03;5053804;28;20310;-54
2022/12/10 04:30:16;;;;;;;49.60;25.70;;;;;;;9.46;100.00;98930.28;5053495;28;20673;-55
2022/12/10 04:32:43;;;;;;;60.27;27.93;;;;;;;9.47;100.00;98949.09;5053797;28;20189;-54
2022/12/10 04:35:11;;;;;;;52.83;26.60;;;;;;;9.49;100.00;98937.13;5053865;28;20212;-54
2022/12/10 04:37:38;;;;;;;46.10;25.87;;;;;;;9.47;100.00;98936.28;5062295;28;20226;-54
2022/12/10 04:40:07;;;;;;;41.50;22.70;;;;;;;9.47;100.00;98937.13;5054326;28;20223;-55
2022/12/10 04:42:34;;;;;;;49.50;24.00;;;;;;;9.42;100.00;98943.88;5054067;28;20192;-55
2022/12/10 04:45:00;;;;;;;41.70;22.97;;;;;;;9.43;100.00;98944.75;5054275;28;20207;-55
2022/12/10 04:47:27;;;;;;;51.50;25.53;;;;;;;9.45;100.00;98937.94;5054252;28;20195;-54
2022/12/10 04:49:54;;;;;;;48.30;25.43;;;;;;;9.44;100.00;98936.22;5054533;28;20198;-55
2022/12/10 04:52:22;;;;;;;49.27;26.17;;;;;;;9.42;100.00;98943.88;5054211;28;20232;-54
2022/12/10 04:54:49;;;;;;;49.20;25.70;;;;;;;9.48;100.00;98940.53;5053766;28;20226;-54
2022/12/10 04:57:16;;;;;;;47.93;23.77;;;;;;;9.43;100.00;98934.50;5054500;28;20199;-54
2022/12/10 04:59:43;;;;;;;48.63;23.73;;;;;;;9.46;100.00;98926.84;5053902;28;20192;-54
2022/12/10 05:02:10;;;;;;;46.40;23.03;;;;;;;9.49;100.00;98925.19;5056737;28;20253;-54
2022/12/10 05:04:37;;;;;;;41.67;23.20;;;;;;;9.52;100.00;98911.53;5063797;28;20201;-54
2022/12/10 05:07:04;;;;;;;43.13;22.33;;;;;;;9.48;100.00;98915.75;5053813;28;20188;-54
2022/12/10 05:09:32;;;;;;;43.10;22.00;;;;;;;9.54;100.00;98911.53;5053751;28;20740;-54
2022/12/10 05:11:59;;;;;;;43.10;22.60;;;;;;;9.52;100.00;98928.63;5053751;28;20199;-54
2022/12/10 05:14:26;;;;;;;38.73;21.50;;;;;;;9.54;100.00;98921.78;5053675;28;20227;-54
2022/12/10 05:16:53;;;;;;;41.20;22.20;;;;;;;9.55;100.00;98926.09;5053600;28;20654;-54
2022/12/10 05:19:21;;;;;;;37.37;21.87;;;;;;;9.57;100.00;98943.22;5053520;28;20210;-54
2022/12/10 05:24:34;;;;;;;39.60;21.67;;;;;;;9.58;100.00;98939.81;5053434;28;20195;-54
2022/12/10 05:27:01;;;;;;;38.63;21.23;;;;;;;9.62;100.00;98935.56;5053258;28;20720;-54
2022/12/10 05:29:28;;;;;;;40.20;21.53;;;;;;;9.62;100.00;98922.72;5053304;28;20657;-54
2022/12/10 05:31:55;;;;;;;35.90;20.00;;;;;;;9.41;100.00;98893.47;5053381;28;20571;-54
2022/12/10 05:34:22;;;;;;;36.90;20.03;;;;;;;9.56;100.00;98927.81;5053238;28;20219;-54
2022/12/10 05:36:49;;;;;;;37.13;19.93;;;;;;;9.54;100.00;98924.34;5053198;28;20621;-53
2022/12/10 05:39:16;;;;;;;35.93;20.47;;;;;;;9.52;100.00;98933.75;5053599;28;20199;-54
2022/12/10 05:41:45;;;;;;;35.00;21.10;;;;;;;9.37;100.00;98898.53;5053001;28;20189;-54
2022/12/10 05:44:12;;;;;;;36.20;20.33;;;;;;;9.54;100.00;98925.22;5052950;28;20192;-54
2022/12/10 05:46:39;;;;;;;37.03;21.73;;;;;;;9.54;100.00;98922.66;5053082;28;20184;-55
2022/12/10 05:49:07;;;;;;;41.13;21.97;;;;;;;9.58;100.00;98933.81;5052987;28;20192;-55
2022/12/10 05:51:36;;;;;;;39.43;22.60;;;;;;;9.56;100.00;98920.13;5052555;28;20231;-55
2022/12/10 05:54:04;;;;;;;41.87;21.43;;;;;;;9.56;100.00;98918.41;5052889;28;20303;-55
2022/12/10 05:56:31;;;;;;;41.37;21.47;;;;;;;9.56;100.00;98923.53;5052714;28;20677;-55
2022/12/10 05:59:01;;;;;;;42.13;21.87;;;;;;;9.58;100.00;98919.31;5052892;28;20192;-55
2022/12/10 06:01:31;;;;;;;40.67;22.10;;;;;;;9.60;100.00;98909.91;5052701;28;20191;-55
2022/12/10 06:03:59;;;;;;;36.53;19.87;;;;;;;9.57;100.00;98909.88;5060238;28;20195;-55
2022/12/10 06:06:28;;;;;;;38.90;21.77;;;;;;;9.42;100.00;98896.91;5032724;28;20254;-55
2022/12/10 06:08:55;;;;;;;40.20;22.13;;;;;;;9.63;100.00;98912.50;5032374;28;20549;-55
2022/12/10 06:11:23;;;;;;;44.67;22.93;;;;;;;9.69;100.00;98916.84;5031693;28;20200;-55
2022/12/10 06:13:50;;;;;;;43.67;22.47;;;;;;;9.46;100.00;98873.00;5032306;28;20706;-54
2022/12/10 06:16:18;;;;;;;44.50;22.47;;;;;;;9.72;100.00;98907.50;5048357;28;20211;-55
2022/12/10 06:18:45;;;;;;;42.47;21.23;;;;;;;9.62;100.00;98894.53;5057639;28;20740;-54
2022/12/10 06:21:14;;;;;;;41.17;21.20;;;;;;;9.72;100.00;98889.53;5052639;28;20192;-55
2022/12/10 06:23:42;;;;;;;33.67;19.20;;;;;;;9.36;100.00;98904.53;5052576;28;20184;-55
2022/12/10 06:26:10;;;;;;;39.03;20.20;;;;;;;9.34;100.00;98904.47;5052320;28;20199;-54
2022/12/10 06:28:38;;;;;;;34.27;20.60;;;;;;;9.52;100.00;98892.72;5052252;28;20188;-54
2022/12/10 06:31:05;;;;;;;39.13;20.27;;;;;;;9.62;100.00;98913.34;5052129;28;20249;-54
2022/12/10 06:33:34;;;;;;;32.90;18.53;;;;;;;9.68;100.00;98908.28;5052113;28;20231;-55
2022/12/10 06:36:00;;;;;;;37.65;22.42;;;;;;;9.80;100.00;98911.00;5055382;28;20455;-55
2022/12/10 06:38:27;;;;;;;34.87;20.70;;;;;;;9.83;100.00;98921.25;5051983;28;20195;-55
2022/12/10 06:40:54;;;;;;;37.17;19.93;;;;;;;9.84;100.00;98925.53;5049743;28;20595;-55
2022/12/10 06:43:21;;;;;;;37.67;19.70;;;;;;;9.88;100.00;98929.00;5032137;28;20194;-55
2022/12/10 06:45:48;;;;;;;37.90;21.60;;;;;;;9.91;100.00;98913.66;5037690;28;20731;-55
2022/12/10 06:48:15;;;;;;;35.63;20.77;;;;;;;9.96;100.00;98917.13;5050475;28;20245;-55
2022/12/10 06:50:43;;;;;;;39.07;20.47;;;;;;;9.71;100.00;98858.72;5050769;28;20184;-56
2022/12/10 06:53:09;;;;;;;37.80;20.57;;;;;;;10.04;100.00;98906.06;5050695;28;20212;-55
2022/12/10 06:55:37;;;;;;;37.23;20.03;;;;;;;10.02;100.00;98912.03;5050752;28;20219;-56
2022/12/10 06:58:04;;;;;;;35.07;19.67;;;;;;;10.12;100.00;98929.22;5048608;28;20215;-55
2022/12/10 07:00:32;;;;;;;35.37;19.83;;;;;;;10.11;100.00;98917.25;5051029;28;20793;-55
2022/12/10 07:02:59;;;;;;;33.70;19.77;;;;;;;10.11;100.00;98914.66;5050973;28;20548;-55
2022/12/10 07:05:25;;;;;;;37.37;20.80;;;;;;;10.16;100.00;98917.31;5051095;28;20269;-56
2022/12/10 07:07:53;;;;;;;31.67;18.87;;;;;;;10.18;100.00;98913.06;5058106;28;20616;-55
2022/12/10 07:10:20;;;;;;;35.43;20.30;;;;;;;10.18;100.00;98920.75;5051974;28;20243;-55
2022/12/10 07:12:47;;;;;;;33.73;19.47;;;;;;;10.15;100.00;98933.56;5051654;28;20199;-55
2022/12/10 07:15:14;;;;;;;32.07;18.70;;;;;;;10.18;100.00;98923.31;5051739;28;20220;-55
2022/12/10 07:17:41;;;;;;;29.17;18.87;;;;;;;10.15;100.00;98915.59;5051430;28;20238;-54
2022/12/10 07:20:09;;;;;;;35.00;18.73;;;;;;;10.18;100.00;98902.78;5051885;28;20201;-54
2022/12/10 07:22:36;;;;;;;38.87;20.50;;;;;;;10.23;100.00;98911.38;5052907;28;20200;-54
2022/12/10 07:25:04;;;;;;;36.50;19.63;;;;;;;10.30;100.00;98906.31;5055745;28;20200;-56
2022/12/10 07:27:31;;;;;;;36.37;20.10;;;;;;;10.32;100.00;98903.78;5070115;28;20199;-55
2022/12/10 07:29:58;;;;;;;39.60;21.67;;;;;;;10.37;100.00;98896.94;5074846;28;20228;-55
2022/12/10 07:32:27;;;;;;;34.20;20.57;;;;;;;10.33;100.00;98892.66;5061726;28;20201;-54
2022/12/10 07:34:57;;;;;;;30.30;19.30;;;;;;;10.32;99.68;98890.94;5041619;28;20225;-55
2022/12/10 07:37:24;;;;;;;32.43;17.67;;;;;;;10.28;99.46;98889.16;5035916;28;20200;-54
2022/12/10 07:39:52;;;;;;;36.28;19.88;;;;;;;10.15;99.63;98900.19;5045339;28;20466;-55
2022/12/10 07:42:20;;;;;;;31.67;18.77;;;;;;;10.17;100.00;98895.94;5059669;28;20613;-55
2022/12/10 07:44:48;;;;;;;28.83;19.67;;;;;;;10.26;100.00;98906.28;5068748;28;20230;-55
2022/12/10 07:47:15;;;;;;;35.83;20.63;;;;;;;10.27;100.00;98892.59;5055003;28;20196;-54
2022/12/10 07:49:42;;;;;;;35.90;20.40;;;;;;;10.28;100.00;98889.16;5055332;28;20199;-55
2022/12/10 07:52:09;;;;;;;35.53;21.23;;;;;;;10.20;100.00;98865.16;5055020;28;20223;-54
2022/12/10 07:54:36;;;;;;;39.77;22.77;;;;;;;10.30;99.67;98884.94;5052630;28;20721;-54
2022/12/10 07:57:03;;;;;;;39.63;25.85;;;;;;;10.35;100.00;98891.81;5067609;28;20442;-54
2022/12/10 07:59:31;;;;;;;36.73;22.77;;;;;;;10.38;100.00;98896.13;5072971;28;20191;-54
2022/12/10 08:01:58;;;;;;;38.07;22.70;;;;;;;10.48;99.75;98896.19;5054798;28;20229;-54
2022/12/10 08:04:28;;;;;;;34.37;21.07;;;;;;;10.52;98.88;98902.22;5054960;28;20196;-54
2022/12/10 08:06:55;;;;;;;39.73;22.50;;;;;;;10.44;98.71;98904.69;5054673;28;20188;-55
2022/12/10 08:09:22;;;;;;;44.03;23.43;;;;;;;10.46;99.92;98900.47;5054680;28;20250;-55
2022/12/10 08:11:49;;;;;;;38.20;22.17;;;;;;;10.54;100.00;98888.53;5055107;28;20187;-55
2022/12/10 08:14:15;;;;;;;44.87;24.93;;;;;;;10.49;100.00;98890.19;5053548;28;20189;-55
2022/12/10 08:16:43;;;;;;;44.07;23.80;;;;;;;10.46;99.33;98879.06;5051894;28;20666;-55
2022/12/10 08:19:10;;;;;;;47.47;24.90;;;;;;;10.42;98.82;98890.13;5051289;28;20192;-55
2022/12/10 08:21:37;;;;;;;47.77;25.47;;;;;;;10.45;99.18;98882.47;5053814;28;20192;-54
2022/12/10 08:24:04;;;;;;;39.70;23.87;;;;;;;10.47;99.64;98894.44;5054164;28;20185;-55
2022/12/10 08:26:33;;;;;;;46.23;26.00;;;;;;;10.51;99.97;98898.78;5053222;28;20196;-56
2022/12/10 08:29:01;;;;;;;45.70;26.63;;;;;;;10.56;99.29;98902.22;5051077;28;20192;-56
2022/12/10 08:31:29;;;;;;;47.83;26.60;;;;;;;10.57;99.19;98893.69;5053670;28;20192;-56
2022/12/10 08:33:57;;;;;;;44.80;25.10;;;;;;;10.52;99.81;98876.53;5050050;28;20191;-56
2022/12/10 08:36:24;;;;;;;43.03;23.77;;;;;;;10.57;99.21;98870.56;5053469;28;20212;-55
2022/12/10 08:38:51;;;;;;;39.90;24.47;;;;;;;10.63;98.95;98864.59;5053711;28;20223;-56
2022/12/10 08:41:20;;;;;;;44.30;26.67;;;;;;;10.68;98.05;98860.34;5053587;28;20196;-56
2022/12/10 08:43:47;;;;;;;48.13;26.13;;;;;;;10.60;97.69;98851.75;5061188;28;20195;-54
2022/12/10 08:46:14;;;;;;;42.53;24.67;;;;;;;10.64;98.74;98864.59;5053354;28;20460;-56
2022/12/10 08:48:41;;;;;;;42.83;25.30;;;;;;;10.68;98.72;98862.94;5050954;28;20663;-54
2022/12/10 08:51:14;;;;;;;43.20;26.10;;;;;;;10.77;98.40;98864.69;5050742;28;20597;-54
2022/12/10 08:53:41;;;;;;;40.87;26.13;;;;;;;10.80;98.22;98864.69;5051570;28;20253;-54
2022/12/10 08:56:08;;;;;;;51.13;31.23;;;;;;;10.84;97.78;98858.72;5052610;28;20496;-55
2022/12/10 08:58:35;;;;;;;44.57;26.33;;;;;;;11.02;97.70;98853.66;5053024;28;20662;-55
2022/12/10 09:01:07;;;;;;;43.97;26.60;;;;;;;11.03;96.54;98834.81;5061860;28;20283;-54
2022/12/10 09:03:34;;;;;;;49.03;27.00;;;;;;;11.15;96.29;98848.56;5056562;28;20728;-54
2022/12/10 09:06:03;;;;;;;45.37;25.37;;;;;;;11.22;95.79;98854.59;5056839;28;20206;-55
2022/12/10 09:08:32;;;;;;;38.07;24.23;;;;;;;11.23;95.67;98846.88;5053480;28;20188;-55
2022/12/10 09:10:58;;;;;;;42.43;24.27;;;;;;;11.38;94.67;98828.06;5053072;28;20185;-55
2022/12/10 09:13:25;;;;;;;42.13;23.27;;;;;;;11.47;94.44;98822.94;5053838;28;20188;-55
2022/12/10 09:15:53;;;;;;;38.60;23.80;;;;;;;11.52;93.26;98828.94;5053248;28;20251;-55
2022/12/10 09:18:20;;;;;;;35.63;20.80;;;;;;;11.62;92.46;98815.22;5053298;28;20195;-55
2022/12/10 09:20:47;;;;;;;37.93;21.53;;;;;;;11.74;92.34;98804.13;5053237;28;20199;-56
2022/12/10 09:23:14;;;;;;;33.17;21.13;;;;;;;11.73;91.75;98797.25;5053214;28;20701;-55
2022/12/10 09:25:42;;;;;;;29.43;19.23;;;;;;;11.67;90.59;98794.66;5053372;28;20202;-56
2022/12/10 09:28:09;;;;;;;26.40;17.67;;;;;;;11.67;89.63;98786.94;5053269;28;20521;-54
2022/12/10 09:30:36;;;;;;;27.93;18.83;;;;;;;11.80;89.28;98796.41;5052843;28;20544;-55
2022/12/10 09:33:03;;;;;;;20.87;14.70;;;;;;;11.90;89.31;98792.97;5053560;28;20184;-55
2022/12/10 09:35:30;;;;;;;25.10;17.10;;;;;;;12.03;88.72;98781.78;5053437;28;20219;-56
2022/12/10 09:37:57;;;;;;;32.03;19.27;;;;;;;12.23;89.06;98784.34;5053235;28;20188;-56
2022/12/10 09:40:30;;;;;;;31.23;20.90;;;;;;;12.41;88.68;98768.88;5052712;28;20440;-56
2022/12/10 09:43:05;;;;;;;27.50;18.43;;;;;;;12.40;87.45;98752.56;5052709;28;20648;-56
2022/12/10 09:45:41;;;;;;;25.23;18.70;;;;;;;12.53;86.25;98771.41;5052491;28;20196;-56
2022/12/10 09:48:21;;;;;;;30.17;19.77;;;;;;;12.56;86.21;98770.53;5052626;28;20298;-56
2022/12/10 09:50:57;;;;;;;29.33;18.87;;;;;;;12.50;85.93;98763.66;5054757;28;20203;-55
2022/12/10 09:53:25;;;;;;;24.93;19.10;;;;;;;12.43;86.63;98762.84;5052209;28;20216;-54
2022/12/10 09:55:52;;;;;;;33.00;20.43;;;;;;;12.42;86.10;98745.66;5052462;28;20247;-55
2022/12/10 09:58:23;;;;;;;24.57;19.20;;;;;;;12.31;87.46;98742.25;5052342;28;20279;-55
2022/12/10 10:00:56;;;;;;;30.57;20.53;;;;;;;12.37;87.95;98736.25;5052317;28;20615;-55
2022/12/10 10:03:23;;;;;;;29.37;19.97;;;;;;;12.42;88.16;98735.38;5051556;28;20192;-56
2022/12/10 10:05:52;;;;;;;34.97;20.03;;;;;;;12.39;87.65;98727.66;5058831;28;20250;-55
2022/12/10 10:08:29;;;;;;;30.27;21.43;;;;;;;12.48;87.54;98731.03;5051184;28;20188;-55
2022/12/10 10:10:55;;;;;;;30.50;20.50;;;;;;;12.55;87.09;98714.72;5051073;28;20203;-55
2022/12/10 10:13:31;;;;;;;30.37;20.17;;;;;;;12.54;86.68;98723.31;5052444;28;20270;-54
2022/12/10 10:16:10;;;;;;;33.47;20.00;;;;;;;12.53;85.94;98719.84;5052585;28;20223;-54
2022/12/10 10:18:41;;;;;;;36.70;21.10;;;;;;;12.49;85.90;98720.75;5051263;28;20678;-54
2022/12/10 10:21:16;;;;;;;30.07;19.80;;;;;;;12.54;86.12;98700.97;5051554;28;20210;-54
2022/12/10 10:23:46;;;;;;;35.13;22.47;;;;;;;12.36;86.04;98701.88;5049370;28;20705;-55
2022/12/10 10:26:13;;;;;;;36.00;21.57;;;;;;;12.35;86.14;98715.66;5064622;28;20199;-55
2022/12/10 10:28:42;;;;;;;29.33;21.13;;;;;;;12.35;86.75;98701.91;5050868;28;20228;-54
2022/12/10 10:31:19;;;;;;;34.87;21.57;;;;;;;12.39;87.04;98704.47;5052093;28;20204;-54
2022/12/10 10:33:50;;;;;;;33.60;20.97;;;;;;;12.37;87.40;98703.63;5051729;28;20196;-54
2022/12/10 10:36:17;;;;;;;30.00;20.40;;;;;;;12.26;86.98;98678.75;5051967;28;20215;-54
2022/12/10 10:38:49;;;;;;;36.50;22.17;;;;;;;12.38;87.43;98695.03;5051974;28;20196;-54
2022/12/10 10:41:15;;;;;;;36.83;22.10;;;;;;;12.37;87.17;98688.16;5051707;28;20296;-54
2022/12/10 10:43:45;;;;;;;31.97;22.40;;;;;;;12.17;87.14;98684.78;5051701;28;20647;-54
2022/12/10 10:46:15;;;;;;;27.53;21.27;;;;;;;11.87;88.48;98660.88;5051793;28;20724;-54
2022/12/10 10:48:41;;;;;;;36.23;21.67;;;;;;;11.90;89.13;98676.28;5051786;28;20192;-54
2022/12/10 10:51:16;;;;;;;40.17;22.07;;;;;;;11.84;89.20;98669.44;5051034;28;20253;-54
2022/12/10 10:53:44;;;;;;;32.87;21.77;;;;;;;11.80;89.85;98655.72;5051396;28;20237;-54
2022/12/10 10:56:16;;;;;;;36.03;22.30;;;;;;;11.83;89.80;98640.28;5051143;28;20219;-54
2022/12/10 10:58:55;;;;;;;33.90;22.97;;;;;;;11.77;90.05;98644.56;5056984;28;20195;-54
2022/12/10 11:01:24;;;;;;;33.53;23.57;;;;;;;11.87;90.71;98650.56;5057742;28;20188;-54
2022/12/10 11:03:56;;;;;;;37.23;22.77;;;;;;;11.98;90.66;98661.66;5057872;28;20241;-54
2022/12/10 11:06:23;;;;;;;40.10;24.33;;;;;;;11.97;89.97;98663.41;5057886;28;20650;-55
2022/12/10 11:08:59;;;;;;;35.87;23.90;;;;;;;11.79;89.85;98627.41;5057797;28;20211;-56
2022/12/10 11:11:34;;;;;;;35.60;23.97;;;;;;;11.85;89.31;98635.13;5056934;28;20187;-57
2022/12/10 11:14:25;;;;;;;41.60;26.17;;;;;;;11.97;89.73;98642.81;5048819;28;20195;-56
2022/12/10 11:17:00;;;;;;;41.90;23.77;;;;;;;11.86;90.08;98634.28;5040414;28;20230;-55
2022/12/10 11:19:27;;;;;;;41.27;23.07;;;;;;;11.86;90.33;98634.28;5040019;28;20192;-56
2022/12/10 11:21:54;;;;;;;38.20;23.83;;;;;;;11.95;90.17;98639.38;5058306;28;20203;-56
2022/12/10 11:24:21;;;;;;;43.80;24.70;;;;;;;12.04;90.36;98635.91;5057528;28;20192;-55
2022/12/10 11:26:58;;;;;;;41.10;26.50;;;;;;;12.13;90.30;98626.44;5055983;28;20192;-56
2022/12/10 11:29:46;;;;;;;48.03;27.43;;;;;;;12.23;89.92;98625.53;5055046;28;20188;-56
2022/12/10 11:32:26;;;;;;;52.90;29.50;;;;;;;12.37;89.61;98630.63;5055380;28;20181;-56
2022/12/10 11:35:05;;;;;;;44.63;26.60;;;;;;;12.43;89.07;98620.31;5054279;28;20199;-56
2022/12/10 11:37:35;;;;;;;44.20;28.33;;;;;;;12.47;88.85;98613.41;5053854;28;20283;-56